sensor_id;sensor_type;location;lat;lon;timestamp;P1;durP1;ratioP1;P2;durP2;ratioP2
45065;SDS011;30830;53.704;10.004;2023-03-01T00:01:03;11.13;;;7.55;;
45065;SDS011;30830;53.704;10.004;2023-03-01T00:03:34;13.98;;;7.85;;
45065;SDS011;30830;53.704;10.004;2023-03-01T00:06:01;11.13;;;7.93;;
45065;SDS011;30830;53.704;10.004;2023-03-01T00:08:28;12.40;;;7.95;;
45065;SDS011;30830;53.704;10.004;2023-03-01T00:11:02;10.07;;;7.45;;
45065;SDS011;30830;53.704;10.004;2023-03-01T00:13:33;13.60;;;9.05;;
45065;SDS011;30830;53.704;10.004;2023-03-01T00:16:01;13.60;;;8.82;;
45065;SDS011;30830;53.704;10.004;2023-03-01T00:18:31;13.18;;;8.30;;
45065;SDS011;30830;53.704;10.004;2023-03-01T00:20:57;14.60;;;8.45;;
45065;SDS011;30830;53.704;10.004;2023-03-01T00:23:23;11.65;;;7.68;;
45065;SDS011;30830;53.704;10.004;2023-03-01T00:25:49;13.35;;;8.57;;
45065;SDS011;30830;53.704;10.004;2023-03-01T00:28:15;14.10;;;8.32;;
45065;SDS011;30830;53.704;10.004;2023-03-01T00:30:41;12.25;;;8.32;;
45065;SDS011;30830;53.704;10.004;2023-03-01T00:33:07;12.25;;;8.35;;
45065;SDS011;30830;53.704;10.004;2023-03-01T00:35:33;12.93;;;7.70;;
45065;SDS011;30830;53.704;10.004;2023-03-01T00:37:59;11.35;;;8.38;;
45065;SDS011;30830;53.704;10.004;2023-03-01T00:40:25;11.65;;;7.55;;
45065;SDS011;30830;53.704;10.004;2023-03-01T00:42:52;13.27;;;7.57;;
45065;SDS011;30830;53.704;10.004;2023-03-01T00:45:17;11.90;;;8.20;;
45065;SDS011;30830;53.704;10.004;2023-03-01T00:47:43;12.80;;;8.60;;
45065;SDS011;30830;53.704;10.004;2023-03-01T00:50:09;13.50;;;7.88;;
45065;SDS011;30830;53.704;10.004;2023-03-01T00:52:36;9.93;;;7.32;;
45065;SDS011;30830;53.704;10.004;2023-03-01T00:55:02;11.82;;;7.55;;
45065;SDS011;30830;53.704;10.004;2023-03-01T00:57:28;10.85;;;7.20;;
45065;SDS011;30830;53.704;10.004;2023-03-01T00:59:54;9.18;;;7.15;;
45065;SDS011;30830;53.704;10.004;2023-03-01T01:02:19;9.70;;;6.93;;
45065;SDS011;30830;53.704;10.004;2023-03-01T01:04:45;11.73;;;7.28;;
45065;SDS011;30830;53.704;10.004;2023-03-01T01:07:11;11.60;;;7.07;;
45065;SDS011;30830;53.704;10.004;2023-03-01T01:09:37;8.82;;;6.70;;
45065;SDS011;30830;53.704;10.004;2023-03-01T01:12:02;13.10;;;7.65;;
45065;SDS011;30830;53.704;10.004;2023-03-01T01:14:28;12.25;;;6.78;;
45065;SDS011;30830;53.704;10.004;2023-03-01T01:16:54;11.63;;;7.45;;
45065;SDS011;30830;53.704;10.004;2023-03-01T01:19:20;10.35;;;7.80;;
45065;SDS011;30830;53.704;10.004;2023-03-01T01:21:46;12.75;;;7.47;;
45065;SDS011;30830;53.704;10.004;2023-03-01T01:24:13;10.88;;;7.88;;
45065;SDS011;30830;53.704;10.004;2023-03-01T01:26:39;15.80;;;7.10;;
45065;SDS011;30830;53.704;10.004;2023-03-01T01:29:05;12.10;;;7.57;;
45065;SDS011;30830;53.704;10.004;2023-03-01T01:31:32;11.65;;;7.70;;
45065;SDS011;30830;53.704;10.004;2023-03-01T01:34:00;9.27;;;6.75;;
45065;SDS011;30830;53.704;10.004;2023-03-01T01:36:27;13.07;;;7.50;;
45065;SDS011;30830;53.704;10.004;2023-03-01T01:38:53;8.63;;;6.90;;
45065;SDS011;30830;53.704;10.004;2023-03-01T01:41:19;10.20;;;6.28;;
45065;SDS011;30830;53.704;10.004;2023-03-01T01:43:46;10.40;;;6.38;;
45065;SDS011;30830;53.704;10.004;2023-03-01T01:46:30;9.98;;;6.93;;
45065;SDS011;30830;53.704;10.004;2023-03-01T01:48:58;9.23;;;6.75;;
45065;SDS011;30830;53.704;10.004;2023-03-01T01:51:30;11.48;;;7.70;;
45065;SDS011;30830;53.704;10.004;2023-03-01T01:54:03;9.30;;;6.88;;
45065;SDS011;30830;53.704;10.004;2023-03-01T01:56:36;9.70;;;6.85;;
45065;SDS011;30830;53.704;10.004;2023-03-01T01:59:03;9.65;;;6.97;;
45065;SDS011;30830;53.704;10.004;2023-03-01T02:01:30;9.82;;;6.93;;
45065;SDS011;30830;53.704;10.004;2023-03-01T02:03:55;11.35;;;7.15;;
45065;SDS011;30830;53.704;10.004;2023-03-01T02:06:34;10.65;;;6.90;;
45065;SDS011;30830;53.704;10.004;2023-03-01T02:09:06;12.98;;;7.22;;
45065;SDS011;30830;53.704;10.004;2023-03-01T02:11:36;12.10;;;6.85;;
45065;SDS011;30830;53.704;10.004;2023-03-01T02:14:02;10.55;;;7.05;;
45065;SDS011;30830;53.704;10.004;2023-03-01T02:16:29;8.77;;;7.00;;
45065;SDS011;30830;53.704;10.004;2023-03-01T02:18:56;9.82;;;6.78;;
45065;SDS011;30830;53.704;10.004;2023-03-01T02:24:32;11.68;;;7.10;;
45065;SDS011;30830;53.704;10.004;2023-03-01T02:27:16;11.57;;;7.30;;
45065;SDS011;30830;53.704;10.004;2023-03-01T02:29:46;8.68;;;6.07;;
45065;SDS011;30830;53.704;10.004;2023-03-01T02:32:12;9.90;;;6.93;;
45065;SDS011;30830;53.704;10.004;2023-03-01T02:34:40;12.52;;;7.57;;
45065;SDS011;30830;53.704;10.004;2023-03-01T02:37:10;10.10;;;7.45;;
45065;SDS011;30830;53.704;10.004;2023-03-01T02:39:40;10.20;;;6.57;;
45065;SDS011;30830;53.704;10.004;2023-03-01T02:42:11;13.00;;;6.90;;
45065;SDS011;30830;53.704;10.004;2023-03-01T02:44:39;11.35;;;6.70;;
45065;SDS011;30830;53.704;10.004;2023-03-01T02:47:05;11.57;;;7.35;;
45065;SDS011;30830;53.704;10.004;2023-03-01T02:49:32;11.55;;;7.57;;
45065;SDS011;30830;53.704;10.004;2023-03-01T02:55:08;9.10;;;6.32;;
45065;SDS011;30830;53.704;10.004;2023-03-01T02:57:40;7.65;;;6.47;;
45065;SDS011;30830;53.704;10.004;2023-03-01T03:00:09;7.63;;;6.43;;
45065;SDS011;30830;53.704;10.004;2023-03-01T03:02:44;8.63;;;6.68;;
45065;SDS011;30830;53.704;10.004;2023-03-01T03:05:12;8.98;;;7.20;;
45065;SDS011;30830;53.704;10.004;2023-03-01T03:07:41;11.15;;;7.03;;
45065;SDS011;30830;53.704;10.004;2023-03-01T03:10:10;12.02;;;7.43;;
45065;SDS011;30830;53.704;10.004;2023-03-01T03:15:13;9.95;;;6.70;;
45065;SDS011;30830;53.704;10.004;2023-03-01T03:17:40;8.50;;;6.68;;
45065;SDS011;30830;53.704;10.004;2023-03-01T03:20:07;10.63;;;6.47;;
45065;SDS011;30830;53.704;10.004;2023-03-01T03:22:37;11.85;;;7.43;;
45065;SDS011;30830;53.704;10.004;2023-03-01T03:25:07;7.25;;;6.00;;
45065;SDS011;30830;53.704;10.004;2023-03-01T03:27:39;11.60;;;7.22;;
45065;SDS011;30830;53.704;10.004;2023-03-01T03:30:06;7.80;;;6.38;;
45065;SDS011;30830;53.704;10.004;2023-03-01T03:32:34;11.98;;;6.72;;
45065;SDS011;30830;53.704;10.004;2023-03-01T03:35:03;13.15;;;6.13;;
45065;SDS011;30830;53.704;10.004;2023-03-01T03:37:38;9.75;;;6.28;;
45065;SDS011;30830;53.704;10.004;2023-03-01T03:40:23;11.98;;;7.18;;
45065;SDS011;30830;53.704;10.004;2023-03-01T03:42:49;10.07;;;6.65;;
45065;SDS011;30830;53.704;10.004;2023-03-01T03:45:15;9.30;;;6.45;;
45065;SDS011;30830;53.704;10.004;2023-03-01T03:47:41;8.40;;;6.40;;
45065;SDS011;30830;53.704;10.004;2023-03-01T03:50:08;9.18;;;6.13;;
45065;SDS011;30830;53.704;10.004;2023-03-01T03:52:35;9.40;;;5.43;;
45065;SDS011;30830;53.704;10.004;2023-03-01T03:55:00;11.77;;;6.82;;
45065;SDS011;30830;53.704;10.004;2023-03-01T03:57:26;7.43;;;6.13;;
45065;SDS011;30830;53.704;10.004;2023-03-01T03:59:51;11.55;;;7.40;;
45065;SDS011;30830;53.704;10.004;2023-03-01T04:02:17;8.98;;;6.07;;
45065;SDS011;30830;53.704;10.004;2023-03-01T04:04:47;9.65;;;5.75;;
45065;SDS011;30830;53.704;10.004;2023-03-01T04:07:14;8.95;;;5.80;;
45065;SDS011;30830;53.704;10.004;2023-03-01T04:09:41;8.20;;;6.50;;
45065;SDS011;30830;53.704;10.004;2023-03-01T04:12:07;8.88;;;6.38;;
45065;SDS011;30830;53.704;10.004;2023-03-01T04:14:33;8.98;;;6.00;;
45065;SDS011;30830;53.704;10.004;2023-03-01T04:16:59;8.77;;;6.30;;
45065;SDS011;30830;53.704;10.004;2023-03-01T04:19:24;9.63;;;6.18;;
45065;SDS011;30830;53.704;10.004;2023-03-01T04:21:51;8.93;;;6.00;;
45065;SDS011;30830;53.704;10.004;2023-03-01T04:24:17;8.40;;;5.95;;
45065;SDS011;30830;53.704;10.004;2023-03-01T04:26:43;8.77;;;5.88;;
45065;SDS011;30830;53.704;10.004;2023-03-01T04:29:08;12.57;;;6.75;;
45065;SDS011;30830;53.704;10.004;2023-03-01T04:31:34;9.73;;;6.70;;
45065;SDS011;30830;53.704;10.004;2023-03-01T04:33:59;9.40;;;5.97;;
45065;SDS011;30830;53.704;10.004;2023-03-01T04:36:26;9.27;;;6.72;;
45065;SDS011;30830;53.704;10.004;2023-03-01T04:38:53;7.88;;;6.32;;
45065;SDS011;30830;53.704;10.004;2023-03-01T04:41:19;8.93;;;6.47;;
45065;SDS011;30830;53.704;10.004;2023-03-01T04:43:46;7.95;;;5.70;;
45065;SDS011;30830;53.704;10.004;2023-03-01T04:46:14;8.93;;;5.93;;
45065;SDS011;30830;53.704;10.004;2023-03-01T04:48:42;8.93;;;6.03;;
45065;SDS011;30830;53.704;10.004;2023-03-01T04:51:09;9.65;;;7.05;;
45065;SDS011;30830;53.704;10.004;2023-03-01T04:53:38;8.13;;;6.28;;
45065;SDS011;30830;53.704;10.004;2023-03-01T04:56:05;10.10;;;6.90;;
45065;SDS011;30830;53.704;10.004;2023-03-01T04:58:31;9.88;;;7.00;;
45065;SDS011;30830;53.704;10.004;2023-03-01T05:00:57;8.68;;;5.90;;
45065;SDS011;30830;53.704;10.004;2023-03-01T05:03:23;8.90;;;5.75;;
45065;SDS011;30830;53.704;10.004;2023-03-01T05:05:49;10.25;;;5.80;;
45065;SDS011;30830;53.704;10.004;2023-03-01T05:08:16;10.10;;;6.07;;
45065;SDS011;30830;53.704;10.004;2023-03-01T05:10:46;10.63;;;6.97;;
45065;SDS011;30830;53.704;10.004;2023-03-01T05:13:16;8.93;;;5.65;;
45065;SDS011;30830;53.704;10.004;2023-03-01T05:15:55;6.72;;;5.82;;
45065;SDS011;30830;53.704;10.004;2023-03-01T05:18:23;9.63;;;6.10;;
45065;SDS011;30830;53.704;10.004;2023-03-01T05:20:53;8.57;;;6.25;;
45065;SDS011;30830;53.704;10.004;2023-03-01T05:23:21;7.80;;;5.57;;
45065;SDS011;30830;53.704;10.004;2023-03-01T05:25:47;8.40;;;5.68;;
45065;SDS011;30830;53.704;10.004;2023-03-01T05:28:14;10.13;;;6.82;;
45065;SDS011;30830;53.704;10.004;2023-03-01T05:30:40;10.55;;;6.65;;
45065;SDS011;30830;53.704;10.004;2023-03-01T05:33:06;9.85;;;6.50;;
45065;SDS011;30830;53.704;10.004;2023-03-01T05:35:38;9.40;;;6.18;;
45065;SDS011;30830;53.704;10.004;2023-03-01T05:38:06;10.93;;;6.68;;
45065;SDS011;30830;53.704;10.004;2023-03-01T05:40:32;7.40;;;6.18;;
45065;SDS011;30830;53.704;10.004;2023-03-01T05:42:58;8.63;;;5.85;;
45065;SDS011;30830;53.704;10.004;2023-03-01T05:45:24;10.13;;;5.93;;
45065;SDS011;30830;53.704;10.004;2023-03-01T05:47:51;8.43;;;6.05;;
45065;SDS011;30830;53.704;10.004;2023-03-01T05:50:21;8.88;;;6.68;;
45065;SDS011;30830;53.704;10.004;2023-03-01T05:52:51;10.63;;;7.55;;
45065;SDS011;30830;53.704;10.004;2023-03-01T05:55:21;7.90;;;6.63;;
45065;SDS011;30830;53.704;10.004;2023-03-01T05:57:47;9.70;;;6.88;;
45065;SDS011;30830;53.704;10.004;2023-03-01T06:00:14;14.18;;;8.10;;
45065;SDS011;30830;53.704;10.004;2023-03-01T06:02:41;10.35;;;7.43;;
45065;SDS011;30830;53.704;10.004;2023-03-01T06:05:07;11.55;;;7.38;;
45065;SDS011;30830;53.704;10.004;2023-03-01T06:07:34;10.20;;;6.93;;
45065;SDS011;30830;53.704;10.004;2023-03-01T06:10:00;10.73;;;7.03;;
45065;SDS011;30830;53.704;10.004;2023-03-01T06:12:26;11.15;;;7.57;;
45065;SDS011;30830;53.704;10.004;2023-03-01T06:14:55;10.63;;;8.00;;
45065;SDS011;30830;53.704;10.004;2023-03-01T06:17:20;12.55;;;8.02;;
45065;SDS011;30830;53.704;10.004;2023-03-01T06:19:46;12.32;;;8.05;;
45065;SDS011;30830;53.704;10.004;2023-03-01T06:22:12;10.13;;;7.60;;
45065;SDS011;30830;53.704;10.004;2023-03-01T06:24:38;10.90;;;7.45;;
45065;SDS011;30830;53.704;10.004;2023-03-01T06:27:03;14.27;;;7.50;;
45065;SDS011;30830;53.704;10.004;2023-03-01T06:29:29;10.10;;;7.22;;
45065;SDS011;30830;53.704;10.004;2023-03-01T06:31:55;12.38;;;8.07;;
45065;SDS011;30830;53.704;10.004;2023-03-01T06:34:20;10.85;;;7.95;;
45065;SDS011;30830;53.704;10.004;2023-03-01T06:36:46;11.07;;;7.30;;
45065;SDS011;30830;53.704;10.004;2023-03-01T06:39:12;11.65;;;8.05;;
45065;SDS011;30830;53.704;10.004;2023-03-01T06:41:37;9.57;;;7.78;;
45065;SDS011;30830;53.704;10.004;2023-03-01T06:44:03;11.50;;;8.27;;
45065;SDS011;30830;53.704;10.004;2023-03-01T06:46:29;11.60;;;7.97;;
45065;SDS011;30830;53.704;10.004;2023-03-01T06:48:54;11.90;;;8.07;;
45065;SDS011;30830;53.704;10.004;2023-03-01T06:51:20;9.70;;;7.40;;
45065;SDS011;30830;53.704;10.004;2023-03-01T06:53:45;10.27;;;7.35;;
45065;SDS011;30830;53.704;10.004;2023-03-01T06:56:11;11.77;;;7.93;;
45065;SDS011;30830;53.704;10.004;2023-03-01T06:58:37;11.38;;;7.78;;
45065;SDS011;30830;53.704;10.004;2023-03-01T07:01:08;13.52;;;9.23;;
45065;SDS011;30830;53.704;10.004;2023-03-01T07:03:34;16.00;;;9.75;;
45065;SDS011;30830;53.704;10.004;2023-03-01T07:06:00;21.15;;;14.88;;
45065;SDS011;30830;53.704;10.004;2023-03-01T07:08:25;17.15;;;13.25;;
45065;SDS011;30830;53.704;10.004;2023-03-01T07:10:55;16.40;;;11.73;;
45065;SDS011;30830;53.704;10.004;2023-03-01T07:13:21;19.77;;;13.93;;
45065;SDS011;30830;53.704;10.004;2023-03-01T07:15:47;29.27;;;25.00;;
45065;SDS011;30830;53.704;10.004;2023-03-01T07:18:12;22.75;;;17.88;;
45065;SDS011;30830;53.704;10.004;2023-03-01T07:20:38;17.90;;;11.98;;
45065;SDS011;30830;53.704;10.004;2023-03-01T07:23:04;14.85;;;10.95;;
45065;SDS011;30830;53.704;10.004;2023-03-01T07:25:30;13.85;;;10.07;;
45065;SDS011;30830;53.704;10.004;2023-03-01T07:27:57;14.48;;;9.70;;
45065;SDS011;30830;53.704;10.004;2023-03-01T07:30:22;16.35;;;10.43;;
45065;SDS011;30830;53.704;10.004;2023-03-01T07:32:50;15.50;;;11.43;;
45065;SDS011;30830;53.704;10.004;2023-03-01T07:35:16;14.93;;;10.68;;
45065;SDS011;30830;53.704;10.004;2023-03-01T07:37:42;17.35;;;11.20;;
45065;SDS011;30830;53.704;10.004;2023-03-01T07:40:10;17.35;;;11.80;;
45065;SDS011;30830;53.704;10.004;2023-03-01T07:42:36;16.67;;;11.35;;
45065;SDS011;30830;53.704;10.004;2023-03-01T07:45:05;15.57;;;10.98;;
45065;SDS011;30830;53.704;10.004;2023-03-01T07:47:31;20.52;;;12.55;;
45065;SDS011;30830;53.704;10.004;2023-03-01T07:49:57;16.40;;;12.23;;
45065;SDS011;30830;53.704;10.004;2023-03-01T07:52:22;15.68;;;11.05;;
45065;SDS011;30830;53.704;10.004;2023-03-01T07:54:48;19.95;;;11.75;;
45065;SDS011;30830;53.704;10.004;2023-03-01T07:57:13;19.90;;;12.02;;
45065;SDS011;30830;53.704;10.004;2023-03-01T07:59:39;14.15;;;11.95;;
45065;SDS011;30830;53.704;10.004;2023-03-01T08:02:05;16.08;;;11.73;;
45065;SDS011;30830;53.704;10.004;2023-03-01T08:04:31;18.42;;;12.68;;
45065;SDS011;30830;53.704;10.004;2023-03-01T08:06:58;17.55;;;12.15;;
45065;SDS011;30830;53.704;10.004;2023-03-01T08:09:24;17.05;;;11.52;;
45065;SDS011;30830;53.704;10.004;2023-03-01T08:11:49;18.60;;;12.73;;
45065;SDS011;30830;53.704;10.004;2023-03-01T08:14:15;18.88;;;12.13;;
45065;SDS011;30830;53.704;10.004;2023-03-01T08:16:40;16.17;;;11.30;;
45065;SDS011;30830;53.704;10.004;2023-03-01T08:19:07;17.10;;;12.18;;
45065;SDS011;30830;53.704;10.004;2023-03-01T08:21:33;19.27;;;11.68;;
45065;SDS011;30830;53.704;10.004;2023-03-01T08:24:00;21.55;;;11.70;;
45065;SDS011;30830;53.704;10.004;2023-03-01T08:26:26;16.90;;;12.23;;
45065;SDS011;30830;53.704;10.004;2023-03-01T08:28:52;15.02;;;10.85;;
45065;SDS011;30830;53.704;10.004;2023-03-01T08:31:19;20.27;;;12.73;;
45065;SDS011;30830;53.704;10.004;2023-03-01T08:33:52;17.08;;;12.70;;
45065;SDS011;30830;53.704;10.004;2023-03-01T08:36:23;17.63;;;12.38;;
45065;SDS011;30830;53.704;10.004;2023-03-01T08:38:49;17.30;;;11.50;;
45065;SDS011;30830;53.704;10.004;2023-03-01T08:41:15;18.35;;;13.63;;
45065;SDS011;30830;53.704;10.004;2023-03-01T08:43:41;17.33;;;13.02;;
45065;SDS011;30830;53.704;10.004;2023-03-01T08:46:06;19.92;;;12.07;;
45065;SDS011;30830;53.704;10.004;2023-03-01T08:48:32;19.90;;;11.70;;
45065;SDS011;30830;53.704;10.004;2023-03-01T08:51:07;19.00;;;12.82;;
45065;SDS011;30830;53.704;10.004;2023-03-01T08:53:37;17.23;;;13.30;;
45065;SDS011;30830;53.704;10.004;2023-03-01T08:56:03;17.45;;;12.20;;
45065;SDS011;30830;53.704;10.004;2023-03-01T08:58:29;18.23;;;12.63;;
45065;SDS011;30830;53.704;10.004;2023-03-01T09:00:55;16.13;;;11.60;;
45065;SDS011;30830;53.704;10.004;2023-03-01T09:03:21;19.38;;;12.23;;
45065;SDS011;30830;53.704;10.004;2023-03-01T09:05:47;18.83;;;12.38;;
45065;SDS011;30830;53.704;10.004;2023-03-01T09:08:15;16.92;;;10.52;;
45065;SDS011;30830;53.704;10.004;2023-03-01T09:10:44;17.42;;;10.93;;
45065;SDS011;30830;53.704;10.004;2023-03-01T09:13:10;14.68;;;11.80;;
45065;SDS011;30830;53.704;10.004;2023-03-01T09:15:38;16.42;;;12.35;;
45065;SDS011;30830;53.704;10.004;2023-03-01T09:18:04;19.83;;;11.82;;
45065;SDS011;30830;53.704;10.004;2023-03-01T09:20:30;20.90;;;11.48;;
45065;SDS011;30830;53.704;10.004;2023-03-01T09:22:57;17.60;;;10.55;;
45065;SDS011;30830;53.704;10.004;2023-03-01T09:25:22;17.50;;;11.85;;
45065;SDS011;30830;53.704;10.004;2023-03-01T09:27:51;17.67;;;11.55;;
45065;SDS011;30830;53.704;10.004;2023-03-01T09:30:17;18.98;;;11.68;;
45065;SDS011;30830;53.704;10.004;2023-03-01T09:32:43;17.58;;;12.25;;
45065;SDS011;30830;53.704;10.004;2023-03-01T09:35:09;17.05;;;12.63;;
45065;SDS011;30830;53.704;10.004;2023-03-01T09:37:36;16.83;;;11.73;;
45065;SDS011;30830;53.704;10.004;2023-03-01T09:40:03;20.38;;;11.40;;
45065;SDS011;30830;53.704;10.004;2023-03-01T09:42:32;17.05;;;10.80;;
45065;SDS011;30830;53.704;10.004;2023-03-01T09:45:06;16.42;;;10.98;;
45065;SDS011;30830;53.704;10.004;2023-03-01T09:47:39;18.92;;;10.85;;
45065;SDS011;30830;53.704;10.004;2023-03-01T09:52:50;13.07;;;8.65;;
45065;SDS011;30830;53.704;10.004;2023-03-01T09:55:26;18.42;;;9.30;;
45065;SDS011;30830;53.704;10.004;2023-03-01T09:58:04;14.43;;;9.63;;
45065;SDS011;30830;53.704;10.004;2023-03-01T10:00:44;13.57;;;9.38;;
45065;SDS011;30830;53.704;10.004;2023-03-01T10:03:17;12.50;;;9.18;;
45065;SDS011;30830;53.704;10.004;2023-03-01T10:08:43;12.55;;;8.60;;
45065;SDS011;30830;53.704;10.004;2023-03-01T10:19:05;17.23;;;9.50;;
45065;SDS011;30830;53.704;10.004;2023-03-01T10:21:35;15.85;;;10.68;;
45065;SDS011;30830;53.704;10.004;2023-03-01T10:24:12;16.27;;;10.45;;
45065;SDS011;30830;53.704;10.004;2023-03-01T10:29:18;14.32;;;9.90;;
45065;SDS011;30830;53.704;10.004;2023-03-01T10:31:50;12.85;;;9.35;;
45065;SDS011;30830;53.704;10.004;2023-03-01T10:34:28;16.73;;;10.60;;
45065;SDS011;30830;53.704;10.004;2023-03-01T10:40:06;14.35;;;9.60;;
45065;SDS011;30830;53.704;10.004;2023-03-01T10:42:57;13.27;;;9.93;;
45065;SDS011;30830;53.704;10.004;2023-03-01T10:48:03;12.65;;;9.57;;
45065;SDS011;30830;53.704;10.004;2023-03-01T10:50:48;14.63;;;9.85;;
45065;SDS011;30830;53.704;10.004;2023-03-01T10:53:26;11.02;;;8.68;;
45065;SDS011;30830;53.704;10.004;2023-03-01T10:55:59;14.75;;;9.32;;
45065;SDS011;30830;53.704;10.004;2023-03-01T10:58:32;13.18;;;9.98;;
45065;SDS011;30830;53.704;10.004;2023-03-01T11:01:00;12.23;;;9.52;;
45065;SDS011;30830;53.704;10.004;2023-03-01T11:03:37;12.07;;;9.02;;
45065;SDS011;30830;53.704;10.004;2023-03-01T11:08:32;15.93;;;9.52;;
45065;SDS011;30830;53.704;10.004;2023-03-01T11:11:04;13.10;;;8.52;;
45065;SDS011;30830;53.704;10.004;2023-03-01T11:13:36;12.27;;;8.82;;
45065;SDS011;30830;53.704;10.004;2023-03-01T11:16:14;16.13;;;10.10;;
45065;SDS011;30830;53.704;10.004;2023-03-01T11:18:39;13.63;;;8.88;;
45065;SDS011;30830;53.704;10.004;2023-03-01T11:21:05;13.70;;;8.38;;
45065;SDS011;30830;53.704;10.004;2023-03-01T11:23:33;11.50;;;8.70;;
45065;SDS011;30830;53.704;10.004;2023-03-01T11:26:02;13.05;;;8.23;;
45065;SDS011;30830;53.704;10.004;2023-03-01T11:28:32;11.55;;;7.97;;
45065;SDS011;30830;53.704;10.004;2023-03-01T11:31:09;12.38;;;7.97;;
45065;SDS011;30830;53.704;10.004;2023-03-01T11:36:31;12.90;;;8.70;;
45065;SDS011;30830;53.704;10.004;2023-03-01T11:39:13;12.38;;;8.43;;
45065;SDS011;30830;53.704;10.004;2023-03-01T11:41:42;11.40;;;7.80;;
45065;SDS011;30830;53.704;10.004;2023-03-01T11:44:16;10.90;;;7.30;;
45065;SDS011;30830;53.704;10.004;2023-03-01T11:47:08;11.80;;;8.30;;
45065;SDS011;30830;53.704;10.004;2023-03-01T11:55:42;9.75;;;6.40;;
45065;SDS011;30830;53.704;10.004;2023-03-01T11:58:36;11.38;;;6.95;;
45065;SDS011;30830;53.704;10.004;2023-03-01T12:01:08;10.45;;;6.95;;
45065;SDS011;30830;53.704;10.004;2023-03-01T12:21:11;8.38;;;5.90;;
45065;SDS011;30830;53.704;10.004;2023-03-01T12:24:03;8.35;;;4.70;;
45065;SDS011;30830;53.704;10.004;2023-03-01T12:27:02;10.35;;;5.80;;
45065;SDS011;30830;53.704;10.004;2023-03-01T12:35:39;10.77;;;7.15;;
45065;SDS011;30830;53.704;10.004;2023-03-01T12:38:59;7.68;;;6.25;;
45065;SDS011;30830;53.704;10.004;2023-03-01T12:47:05;10.23;;;5.97;;
45065;SDS011;30830;53.704;10.004;2023-03-01T12:49:42;9.93;;;5.82;;
45065;SDS011;30830;53.704;10.004;2023-03-01T12:54:49;6.82;;;5.60;;
45065;SDS011;30830;53.704;10.004;2023-03-01T12:57:18;7.30;;;5.50;;
45065;SDS011;30830;53.704;10.004;2023-03-01T13:02:48;7.88;;;5.03;;
45065;SDS011;30830;53.704;10.004;2023-03-01T13:08:15;6.00;;;4.72;;
45065;SDS011;30830;53.704;10.004;2023-03-01T13:10:52;9.00;;;4.77;;
45065;SDS011;30830;53.704;10.004;2023-03-01T13:13:25;7.40;;;4.78;;
45065;SDS011;30830;53.704;10.004;2023-03-01T13:15:52;5.10;;;3.95;;
45065;SDS011;30830;53.704;10.004;2023-03-01T13:20:47;4.93;;;4.38;;
45065;SDS011;30830;53.704;10.004;2023-03-01T13:33:44;7.13;;;4.22;;
45065;SDS011;30830;53.704;10.004;2023-03-01T13:44:26;5.05;;;3.95;;
45065;SDS011;30830;53.704;10.004;2023-03-01T13:49:41;7.70;;;4.38;;
45065;SDS011;30830;53.704;10.004;2023-03-01T13:52:27;5.00;;;4.32;;
45065;SDS011;30830;53.704;10.004;2023-03-01T13:54:55;7.63;;;5.15;;
45065;SDS011;30830;53.704;10.004;2023-03-01T13:57:22;7.05;;;5.22;;
45065;SDS011;30830;53.704;10.004;2023-03-01T13:59:53;9.13;;;5.95;;
45065;SDS011;30830;53.704;10.004;2023-03-01T14:02:19;8.10;;;5.57;;
45065;SDS011;30830;53.704;10.004;2023-03-01T14:04:46;7.45;;;5.20;;
45065;SDS011;30830;53.704;10.004;2023-03-01T14:07:25;5.43;;;4.82;;
45065;SDS011;30830;53.704;10.004;2023-03-01T14:10:03;8.00;;;5.80;;
45065;SDS011;30830;53.704;10.004;2023-03-01T14:15:19;7.78;;;5.88;;
45065;SDS011;30830;53.704;10.004;2023-03-01T14:17:53;8.85;;;5.85;;
45065;SDS011;30830;53.704;10.004;2023-03-01T14:20:21;7.22;;;5.82;;
45065;SDS011;30830;53.704;10.004;2023-03-01T14:22:50;6.82;;;6.07;;
45065;SDS011;30830;53.704;10.004;2023-03-01T14:25:25;8.27;;;6.05;;
45065;SDS011;30830;53.704;10.004;2023-03-01T14:28:04;9.88;;;6.70;;
45065;SDS011;30830;53.704;10.004;2023-03-01T14:33:21;6.63;;;5.40;;
45065;SDS011;30830;53.704;10.004;2023-03-01T14:36:02;6.97;;;5.28;;
45065;SDS011;30830;53.704;10.004;2023-03-01T14:41:12;6.93;;;5.03;;
45065;SDS011;30830;53.704;10.004;2023-03-01T14:43:41;6.45;;;5.10;;
45065;SDS011;30830;53.704;10.004;2023-03-01T14:46:19;4.78;;;3.92;;
45065;SDS011;30830;53.704;10.004;2023-03-01T14:48:49;4.90;;;3.47;;
45065;SDS011;30830;53.704;10.004;2023-03-01T14:51:15;4.30;;;3.55;;
45065;SDS011;30830;53.704;10.004;2023-03-01T14:53:41;4.60;;;3.75;;
45065;SDS011;30830;53.704;10.004;2023-03-01T14:56:12;4.88;;;3.97;;
45065;SDS011;30830;53.704;10.004;2023-03-01T14:58:40;5.30;;;3.95;;
45065;SDS011;30830;53.704;10.004;2023-03-01T15:01:06;6.00;;;4.28;;
45065;SDS011;30830;53.704;10.004;2023-03-01T15:03:38;4.80;;;4.07;;
45065;SDS011;30830;53.704;10.004;2023-03-01T15:06:08;4.80;;;3.70;;
45065;SDS011;30830;53.704;10.004;2023-03-01T15:08:36;5.30;;;4.10;;
45065;SDS011;30830;53.704;10.004;2023-03-01T15:13:49;4.88;;;3.92;;
45065;SDS011;30830;53.704;10.004;2023-03-01T15:16:21;5.50;;;4.25;;
45065;SDS011;30830;53.704;10.004;2023-03-01T15:18:52;5.78;;;4.05;;
45065;SDS011;30830;53.704;10.004;2023-03-01T15:23:55;4.72;;;4.13;;
45065;SDS011;30830;53.704;10.004;2023-03-01T15:26:29;4.93;;;4.43;;
45065;SDS011;30830;53.704;10.004;2023-03-01T15:29:05;5.82;;;5.22;;
45065;SDS011;30830;53.704;10.004;2023-03-01T15:31:53;7.78;;;6.03;;
45065;SDS011;30830;53.704;10.004;2023-03-01T15:36:56;8.80;;;5.30;;
45065;SDS011;30830;53.704;10.004;2023-03-01T15:41:53;7.78;;;5.90;;
45065;SDS011;30830;53.704;10.004;2023-03-01T15:44:31;9.73;;;6.20;;
45065;SDS011;30830;53.704;10.004;2023-03-01T15:46:58;9.65;;;5.95;;
45065;SDS011;30830;53.704;10.004;2023-03-01T15:49:40;8.27;;;5.97;;
45065;SDS011;30830;53.704;10.004;2023-03-01T15:52:41;8.98;;;6.68;;
45065;SDS011;30830;53.704;10.004;2023-03-01T15:55:05;9.85;;;6.43;;
45065;SDS011;30830;53.704;10.004;2023-03-01T15:57:40;8.15;;;6.22;;
45065;SDS011;30830;53.704;10.004;2023-03-01T16:00:05;7.25;;;6.03;;
45065;SDS011;30830;53.704;10.004;2023-03-01T16:02:36;7.50;;;5.53;;
45065;SDS011;30830;53.704;10.004;2023-03-01T16:05:02;9.13;;;6.20;;
45065;SDS011;30830;53.704;10.004;2023-03-01T16:07:28;9.68;;;6.53;;
45065;SDS011;30830;53.704;10.004;2023-03-01T16:09:56;8.85;;;6.40;;
45065;SDS011;30830;53.704;10.004;2023-03-01T16:12:22;9.27;;;6.45;;
45065;SDS011;30830;53.704;10.004;2023-03-01T16:14:49;8.10;;;6.22;;
45065;SDS011;30830;53.704;10.004;2023-03-01T16:17:15;7.25;;;5.88;;
45065;SDS011;30830;53.704;10.004;2023-03-01T16:19:41;8.18;;;6.53;;
45065;SDS011;30830;53.704;10.004;2023-03-01T16:22:06;9.43;;;6.43;;
45065;SDS011;30830;53.704;10.004;2023-03-01T16:24:34;9.77;;;7.13;;
45065;SDS011;30830;53.704;10.004;2023-03-01T16:27:00;10.57;;;6.50;;
45065;SDS011;30830;53.704;10.004;2023-03-01T16:29:27;9.60;;;7.20;;
45065;SDS011;30830;53.704;10.004;2023-03-01T16:31:54;8.73;;;7.57;;
45065;SDS011;30830;53.704;10.004;2023-03-01T16:34:20;9.45;;;7.13;;
45065;SDS011;30830;53.704;10.004;2023-03-01T16:36:48;10.30;;;7.03;;